Time;durP1;ratioP1;P1;durP2;ratioP2;P2;SDS_P1;SDS_P2;PMS_P1;PMS_P2;Temp;Humidity;BMP_temperature;BMP_pressure;BME280_temperature;BME280_humidity;BME280_pressure;Samples;Min_cycle;Max_cycle;Signal;HPM_P1;HPM_P2
2022/04/17 00:02:01;;;;;;;;;;;15.20;99.90;;;;;;5054966;28;19931;-86
2022/04/17 00:04:27;;;;;;;;;;;15.10;99.90;;;;;;5054997;28;19909;-87
2022/04/17 00:06:52;;;;;;;;;;;15.10;99.90;;;;;;5072826;28;19909;-87
2022/04/17 00:09:18;;;;;;;;;;;15.00;99.90;;;;;;5073005;28;19923;-86
2022/04/17 00:11:46;;;;;;;;;;;14.90;99.90;;;;;;5072201;28;20444;-86
2022/04/17 00:14:11;;;;;;;;;;;14.80;99.90;;;;;;5073009;28;19912;-86
2022/04/17 00:16:40;;;;;;;;;;;14.70;99.90;;;;;;5054982;28;19908;-86
2022/04/17 00:19:09;;;;;;;;;;;14.70;99.90;;;;;;5072503;28;19915;-86
2022/04/17 00:21:34;;;;;;;;;;;14.80;99.90;;;;;;5072714;28;19982;-86
2022/04/17 00:24:00;;;;;;;;;;;14.80;99.90;;;;;;5072786;28;19916;-86
2022/04/17 00:26:26;;;;;;;;;;;14.70;99.90;;;;;;5072570;28;19909;-86
2022/04/17 00:28:51;;;;;;;;;;;14.70;99.90;;;;;;5072612;28;19950;-86
2022/04/17 00:31:17;;;;;;;;;;;14.60;99.90;;;;;;5054679;28;19919;-86
2022/04/17 00:33:42;;;;;;;;;;;14.60;99.90;;;;;;5072283;28;19973;-86
2022/04/17 00:36:08;;;;;;;;;;;14.60;99.90;;;;;;5071855;28;19909;-86
2022/04/17 00:38:33;;;;;;;;;;;14.50;99.90;;;;;;5072611;28;19908;-86
2022/04/17 00:40:59;;;;;;;;;;;14.50;99.90;;;;;;5072570;28;20045;-86
2022/04/17 00:43:34;;;;;;;;;;;14.50;99.90;;;;;;5072640;28;20213;-86
2022/04/17 00:46:00;;;;;;;;;;;14.40;99.90;;;;;;5054323;28;19912;-86
2022/04/17 00:48:26;;;;;;;;;;;14.40;99.90;;;;;;5071847;28;20452;-86
2022/04/17 00:50:54;;;;;;;;;;;14.30;99.90;;;;;;5072320;28;19919;-86
2022/04/17 00:53:21;;;;;;;;;;;14.30;99.90;;;;;;5054318;28;19936;-86
2022/04/17 00:55:47;;;;;;;;;;;14.20;99.90;;;;;;5054325;28;19965;-86
2022/04/17 00:58:14;;;;;;;;;;;14.20;99.90;;;;;;5072223;28;20005;-86
2022/04/17 01:00:40;;;;;;;;;;;14.10;99.90;;;;;;5071948;28;19938;-86
2022/04/17 01:03:06;;;;;;;;;;;14.00;99.90;;;;;;5053659;28;20151;-86
2022/04/17 01:05:32;;;;;;;;;;;14.00;99.90;;;;;;5072017;28;20484;-86
2022/04/17 01:07:58;;;;;;;;;;;13.90;99.90;;;;;;5072047;28;19912;-86
2022/04/17 01:10:24;;;;;;;;;;;13.90;99.90;;;;;;5054132;28;19916;-86
2022/04/17 01:12:50;;;;;;;;;;;13.90;99.90;;;;;;5071921;28;20376;-86
2022/04/17 01:15:16;;;;;;;;;;;13.80;99.90;;;;;;5072242;28;20315;-86
2022/04/17 01:17:42;;;;;;;;;;;13.70;99.90;;;;;;5071432;28;19996;-86
2022/04/17 01:20:08;;;;;;;;;;;13.80;99.90;;;;;;5071807;28;20279;-86
2022/04/17 01:22:33;;;;;;;;;;;13.70;99.90;;;;;;5053465;28;20449;-86
2022/04/17 01:27:43;;;;;;;;;;;13.70;99.90;;;;;;5071588;28;19951;-86
2022/04/17 01:30:09;;;;;;;;;;;13.70;99.90;;;;;;5053486;28;20389;-86
2022/04/17 01:32:35;;;;;;;;;;;13.60;99.90;;;;;;5053082;28;19915;-86
2022/04/17 01:35:00;;;;;;;;;;;13.60;99.90;;;;;;5071448;28;20258;-86
2022/04/17 01:37:26;;;;;;;;;;;13.60;99.90;;;;;;5071267;28;19954;-86
2022/04/17 01:39:51;;;;;;;;;;;13.60;99.90;;;;;;5071088;28;19958;-86
2022/04/17 01:42:17;;;;;;;;;;;13.50;99.90;;;;;;5071536;28;19951;-86
2022/04/17 01:44:44;;;;;;;;;;;13.50;99.90;;;;;;5071505;28;20369;-86
2022/04/17 01:47:09;;;;;;;;;;;13.50;99.90;;;;;;5052011;28;20057;-86
2022/04/17 01:49:36;;;;;;;;;;;13.50;99.90;;;;;;5071267;28;20450;-86
2022/04/17 01:52:01;;;;;;;;;;;13.40;99.90;;;;;;5071137;28;19943;-86
2022/04/17 01:54:28;;;;;;;;;;;13.40;99.90;;;;;;5071159;28;19974;-86
2022/04/17 01:56:54;;;;;;;;;;;13.40;99.90;;;;;;5070812;28;20391;-86
2022/04/17 01:59:21;;;;;;;;;;;13.40;99.90;;;;;;5052899;28;19978;-86
2022/04/17 02:01:46;;;;;;;;;;;13.40;99.90;;;;;;5052907;28;19920;-86
2022/04/17 02:04:12;;;;;;;;;;;13.40;99.90;;;;;;5070593;28;19909;-86
2022/04/17 02:06:41;;;;;;;;;;;13.30;99.90;;;;;;5070923;28;19953;-86
2022/04/17 02:09:08;;;;;;;;;;;13.30;99.90;;;;;;5070655;28;19912;-86
2022/04/17 02:11:33;;;;;;;;;;;13.30;99.90;;;;;;5070773;28;20435;-86
2022/04/17 02:14:00;;;;;;;;;;;13.30;99.90;;;;;;5070843;28;20036;-86
2022/04/17 02:16:26;;;;;;;;;;;13.20;99.90;;;;;;5052538;28;19908;-86
2022/04/17 02:18:55;;;;;;;;;;;13.20;99.90;;;;;;5069963;28;20261;-86
2022/04/17 02:21:21;;;;;;;;;;;13.20;99.90;;;;;;5052469;28;19977;-86
2022/04/17 02:23:47;;;;;;;;;;;13.10;99.90;;;;;;5070415;28;19909;-86
2022/04/17 02:26:14;;;;;;;;;;;13.10;99.90;;;;;;5070628;28;19915;-86
2022/04/17 02:28:40;;;;;;;;;;;13.10;99.90;;;;;;5070199;28;20324;-86
2022/04/17 02:31:07;;;;;;;;;;;13.00;99.90;;;;;;5070502;28;19916;-86
2022/04/17 02:33:33;;;;;;;;;;;13.10;99.90;;;;;;5051972;28;19943;-86
2022/04/17 02:35:59;;;;;;;;;;;13.00;99.90;;;;;;5052435;28;19912;-86
2022/04/17 02:38:24;;;;;;;;;;;13.00;99.90;;;;;;5063786;28;20352;-86
2022/04/17 02:40:50;;;;;;;;;;;12.90;99.90;;;;;;5052365;28;19943;-86
2022/04/17 02:43:16;;;;;;;;;;;13.00;99.90;;;;;;5070413;28;19909;-86
2022/04/17 02:45:41;;;;;;;;;;;12.90;99.90;;;;;;5052296;28;19923;-86
2022/04/17 02:48:07;;;;;;;;;;;12.90;99.90;;;;;;5069898;28;19969;-86
2022/04/17 02:50:33;;;;;;;;;;;12.90;99.90;;;;;;5052051;28;19917;-86
2022/04/17 02:52:58;;;;;;;;;;;12.90;99.90;;;;;;5070518;28;19920;-86
2022/04/17 02:55:24;;;;;;;;;;;12.80;99.90;;;;;;5070205;28;20239;-86
2022/04/17 02:57:50;;;;;;;;;;;12.80;99.90;;;;;;5069890;28;19912;-86
2022/04/17 03:00:15;;;;;;;;;;;12.70;99.90;;;;;;5052319;28;19908;-86
2022/04/17 03:05:46;;;;;;;;;;;12.60;99.90;;;;;;4968725;28;19915;-86
2022/04/17 03:08:13;;;;;;;;;;;12.60;99.90;;;;;;4968730;28;19914;-86
2022/04/17 03:10:39;;;;;;;;;;;12.60;99.90;;;;;;5015676;28;20384;-86
2022/04/17 03:13:05;;;;;;;;;;;12.50;99.90;;;;;;5051861;28;20360;-86
2022/04/17 03:15:31;;;;;;;;;;;12.50;99.90;;;;;;5070252;28;19969;-87
2022/04/17 03:17:58;;;;;;;;;;;12.40;99.90;;;;;;5069367;28;19915;-86
2022/04/17 03:20:25;;;;;;;;;;;12.40;99.90;;;;;;5069732;28;19932;-86
2022/04/17 03:22:50;;;;;;;;;;;12.40;99.90;;;;;;5052189;28;20009;-85
2022/04/17 03:25:16;;;;;;;;;;;12.40;99.90;;;;;;5063131;28;20007;-86
2022/04/17 03:27:45;;;;;;;;;;;12.30;99.90;;;;;;5069720;28;20364;-86
2022/04/17 03:30:10;;;;;;;;;;;12.20;99.90;;;;;;5051824;28;19943;-86
2022/04/17 03:32:36;;;;;;;;;;;12.20;99.90;;;;;;5051419;28;20293;-86
2022/04/17 03:35:02;;;;;;;;;;;12.10;99.90;;;;;;5070043;28;19920;-86
2022/04/17 03:37:27;;;;;;;;;;;12.10;99.90;;;;;;5070537;28;19955;-86
2022/04/17 03:39:53;;;;;;;;;;;12.00;99.90;;;;;;5069663;28;20043;-86
2022/04/17 03:42:21;;;;;;;;;;;12.00;99.90;;;;;;5069663;28;20010;-86
2022/04/17 03:44:47;;;;;;;;;;;12.00;99.90;;;;;;5051350;28;19908;-86
2022/04/17 03:47:13;;;;;;;;;;;12.00;99.90;;;;;;5069231;28;19977;-86
2022/04/17 03:49:38;;;;;;;;;;;12.00;99.90;;;;;;5051457;28;20389;-86
2022/04/17 03:52:04;;;;;;;;;;;11.90;99.90;;;;;;5069691;28;19952;-86
2022/04/17 03:54:30;;;;;;;;;;;11.90;99.90;;;;;;5069605;28;20004;-86
2022/04/17 03:56:56;;;;;;;;;;;11.90;99.90;;;;;;5069660;28;19909;-86
2022/04/17 03:59:21;;;;;;;;;;;11.90;99.90;;;;;;5069380;28;19918;-86
2022/04/17 04:01:47;;;;;;;;;;;11.80;99.90;;;;;;5069183;28;19909;-86
2022/04/17 04:04:14;;;;;;;;;;;11.90;99.90;;;;;;5051189;28;20380;-86
2022/04/17 04:06:40;;;;;;;;;;;11.90;99.90;;;;;;5069304;28;20361;-87
2022/04/17 04:09:06;;;;;;;;;;;11.90;99.90;;;;;;5069772;28;19912;-86
2022/04/17 04:11:32;;;;;;;;;;;11.80;99.90;;;;;;5073085;28;19920;-86
2022/04/17 04:13:57;;;;;;;;;;;11.80;99.90;;;;;;5054903;28;19908;-86
2022/04/17 04:16:23;;;;;;;;;;;11.70;99.90;;;;;;5055172;28;19908;-86
2022/04/17 04:18:48;;;;;;;;;;;11.70;99.90;;;;;;5072472;28;20262;-86
2022/04/17 04:21:14;;;;;;;;;;;11.70;99.90;;;;;;5054787;28;19921;-86
2022/04/17 04:23:41;;;;;;;;;;;11.60;99.90;;;;;;5054661;28;19916;-86
2022/04/17 04:26:07;;;;;;;;;;;11.60;99.90;;;;;;5072858;28;19915;-86
2022/04/17 04:28:38;;;;;;;;;;;11.60;99.90;;;;;;5054816;28;20343;-86
2022/04/17 04:31:10;;;;;;;;;;;11.60;99.90;;;;;;5054939;28;20304;-86
2022/04/17 04:33:37;;;;;;;;;;;11.60;99.90;;;;;;5048418;28;19961;-86
2022/04/17 04:36:04;;;;;;;;;;;11.50;99.90;;;;;;5072743;28;20065;-86
2022/04/17 04:38:30;;;;;;;;;;;11.50;99.90;;;;;;5054793;28;19962;-86
2022/04/17 04:40:56;;;;;;;;;;;11.40;99.90;;;;;;5054352;28;19912;-85
2022/04/17 04:43:21;;;;;;;;;;;11.40;99.90;;;;;;5072289;28;19916;-86
2022/04/17 04:51:15;;;;;;;;;;;11.30;99.90;;;;;;5072794;28;19994;-86
2022/04/17 04:53:41;;;;;;;;;;;11.30;99.90;;;;;;5072300;28;19913;-86
2022/04/17 04:56:07;;;;;;;;;;;11.30;99.90;;;;;;5054200;28;19912;-86
2022/04/17 04:58:32;;;;;;;;;;;11.30;99.90;;;;;;5054256;28;19919;-86
2022/04/17 05:00:58;;;;;;;;;;;11.30;99.90;;;;;;5054110;28;19918;-86
2022/04/17 05:03:24;;;;;;;;;;;11.20;99.90;;;;;;5071789;28;19916;-86
2022/04/17 05:05:49;;;;;;;;;;;11.20;99.90;;;;;;5054063;28;19923;-86
2022/04/17 05:08:15;;;;;;;;;;;11.20;99.90;;;;;;5072252;28;19942;-86
2022/04/17 05:10:40;;;;;;;;;;;11.20;99.90;;;;;;5072042;28;19952;-86
2022/04/17 05:13:06;;;;;;;;;;;11.20;99.90;;;;;;5071962;28;20412;-86
2022/04/17 05:15:31;;;;;;;;;;;11.10;99.90;;;;;;5071785;28;19908;-86
2022/04/17 05:17:57;;;;;;;;;;;11.10;99.90;;;;;;5053312;28;19920;-86
2022/04/17 05:20:22;;;;;;;;;;;11.10;99.90;;;;;;5071554;28;19975;-86
2022/04/17 05:22:56;;;;;;;;;;;11.10;99.90;;;;;;5071649;28;19916;-87
2022/04/17 05:25:21;;;;;;;;;;;11.10;99.90;;;;;;5053927;28;20028;-87
2022/04/17 05:27:47;;;;;;;;;;;11.10;99.90;;;;;;5071807;28;20523;-86
2022/04/17 05:30:12;;;;;;;;;;;11.10;99.90;;;;;;5072552;28;19924;-87
2022/04/17 05:32:38;;;;;;;;;;;11.10;99.90;;;;;;5072055;28;19908;-86
2022/04/17 05:35:04;;;;;;;;;;;11.10;99.90;;;;;;5053183;28;19943;-87
2022/04/17 05:37:29;;;;;;;;;;;11.00;99.90;;;;;;5053344;28;20399;-87
2022/04/17 05:39:55;;;;;;;;;;;11.10;99.90;;;;;;5070939;28;20405;-87
2022/04/17 05:42:20;;;;;;;;;;;11.10;99.90;;;;;;5053410;28;20008;-87
2022/04/17 05:44:47;;;;;;;;;;;11.00;99.90;;;;;;5071353;28;20254;-86
2022/04/17 05:47:13;;;;;;;;;;;11.10;99.90;;;;;;5072275;28;19908;-87
2022/04/17 05:49:39;;;;;;;;;;;11.00;99.90;;;;;;5071865;28;19924;-87
2022/04/17 05:52:05;;;;;;;;;;;11.00;99.90;;;;;;5071222;28;19913;-87
2022/04/17 05:54:30;;;;;;;;;;;11.00;99.90;;;;;;5052652;28;19915;-86
2022/04/17 05:56:56;;;;;;;;;;;11.10;99.90;;;;;;5052936;28;20315;-86
2022/04/17 05:59:22;;;;;;;;;;;11.10;99.90;;;;;;5053063;28;20441;-86
2022/04/17 06:01:47;;;;;;;;;;;11.20;99.90;;;;;;5052887;28;20353;-86
2022/04/17 06:04:13;;;;;;;;;;;11.20;99.90;;;;;;5071086;28;19971;-86
2022/04/17 06:06:38;;;;;;;;;;;11.20;99.90;;;;;;5070703;28;19948;-87
2022/04/17 06:09:04;;;;;;;;;;;11.30;99.90;;;;;;5070650;28;19912;-86
2022/04/17 06:11:30;;;;;;;;;;;11.40;99.90;;;;;;5052720;28;19961;-86
2022/04/17 06:13:56;;;;;;;;;;;11.50;99.90;;;;;;5052836;28;19908;-86
2022/04/17 06:16:21;;;;;;;;;;;11.50;99.90;;;;;;5070700;28;19908;-86
2022/04/17 06:18:47;;;;;;;;;;;11.50;99.90;;;;;;5052309;28;20189;-89
2022/04/17 06:21:12;;;;;;;;;;;11.60;99.90;;;;;;5052749;28;19999;-89
2022/04/17 06:23:39;;;;;;;;;;;11.60;99.90;;;;;;5070857;28;19958;-89
2022/04/17 06:26:06;;;;;;;;;;;11.70;99.90;;;;;;5069990;28;19948;-89
2022/04/17 06:28:32;;;;;;;;;;;11.70;99.90;;;;;;5052215;28;19909;-89
2022/04/17 06:30:57;;;;;;;;;;;11.80;99.90;;;;;;5068991;28;20012;-89
2022/04/17 06:33:23;;;;;;;;;;;11.80;99.90;;;;;;5069455;28;19915;-89
2022/04/17 06:35:48;;;;;;;;;;;11.90;99.90;;;;;;5070474;28;20008;-89
2022/04/17 06:38:15;;;;;;;;;;;12.00;99.90;;;;;;5051776;28;19916;-88
2022/04/17 06:40:41;;;;;;;;;;;12.00;99.90;;;;;;5069855;28;19940;-88
2022/04/17 06:43:08;;;;;;;;;;;12.00;99.90;;;;;;5070194;28;19956;-89
2022/04/17 06:45:35;;;;;;;;;;;12.10;99.90;;;;;;5069606;28;19942;-88
2022/04/17 06:48:17;;;;;;;;;;;12.20;99.90;;;;;;5051023;28;19913;-89
2022/04/17 06:50:46;;;;;;;;;;;12.30;99.90;;;;;;5069334;28;20011;-89
2022/04/17 06:53:12;;;;;;;;;;;12.40;99.90;;;;;;5069564;28;19915;-88
2022/04/17 06:55:38;;;;;;;;;;;12.40;99.90;;;;;;5069528;28;19909;-89
2022/04/17 06:58:04;;;;;;;;;;;12.60;99.90;;;;;;5052329;28;19916;-88
2022/04/17 07:00:30;;;;;;;;;;;12.70;99.90;;;;;;5070214;28;19909;-88
2022/04/17 07:02:55;;;;;;;;;;;12.60;99.90;;;;;;5051867;28;19951;-88
2022/04/17 07:05:21;;;;;;;;;;;12.70;99.90;;;;;;5051951;28;19908;-88
2022/04/17 07:07:55;;;;;;;;;;;12.90;99.90;;;;;;5069966;28;19908;-88
2022/04/17 07:10:21;;;;;;;;;;;13.10;99.90;;;;;;5069301;28;19916;-89
2022/04/17 07:12:46;;;;;;;;;;;13.10;99.90;;;;;;5070063;28;19909;-89
2022/04/17 07:15:12;;;;;;;;;;;13.10;99.90;;;;;;5052134;28;19960;-89
2022/04/17 07:17:39;;;;;;;;;;;13.20;99.90;;;;;;5069598;28;19908;-88
2022/04/17 07:20:08;;;;;;;;;;;13.20;99.90;;;;;;5069909;28;19908;-88
2022/04/17 07:22:34;;;;;;;;;;;13.20;99.90;;;;;;5069979;28;19928;-89
2022/04/17 07:25:01;;;;;;;;;;;13.20;99.90;;;;;;5072307;28;19915;-88
2022/04/17 07:27:39;;;;;;;;;;;13.20;99.90;;;;;;5054306;28;20369;-88
2022/04/17 07:30:25;;;;;;;;;;;13.30;99.90;;;;;;5069978;28;19917;-88
2022/04/17 07:32:52;;;;;;;;;;;13.40;99.90;;;;;;5069310;28;19948;-89
2022/04/17 07:35:18;;;;;;;;;;;13.40;99.90;;;;;;5069935;28;19908;-88
2022/04/17 07:38:03;;;;;;;;;;;13.50;99.90;;;;;;5069839;28;19908;-88
2022/04/17 07:40:29;;;;;;;;;;;13.60;99.90;;;;;;5052019;28;19980;-89
2022/04/17 07:42:56;;;;;;;;;;;13.80;99.90;;;;;;5069590;28;20003;-88
2022/04/17 07:45:22;;;;;;;;;;;13.90;99.90;;;;;;5053499;28;19909;-88
2022/04/17 07:47:49;;;;;;;;;;;14.00;99.90;;;;;;5073044;28;19915;-88
2022/04/17 07:50:16;;;;;;;;;;;14.10;99.90;;;;;;5073475;28;19916;-88
2022/04/17 07:52:42;;;;;;;;;;;14.10;99.90;;;;;;5073524;28;19960;-89
2022/04/17 07:55:08;;;;;;;;;;;14.20;99.90;;;;;;5073585;28;20506;-88
2022/04/17 08:00:21;;;;;;;;;;;14.40;99.90;;;;;;5061480;28;19923;-88
2022/04/17 08:02:55;;;;;;;;;;;14.60;99.90;;;;;;5072721;28;19912;-88
2022/04/17 08:05:24;;;;;;;;;;;14.60;99.90;;;;;;5055112;28;19913;-88
2022/04/17 08:07:51;;;;;;;;;;;14.70;99.90;;;;;;5072947;28;20007;-88
2022/04/17 08:10:17;;;;;;;;;;;14.80;99.90;;;;;;5073576;28;19924;-88
2022/04/17 08:12:43;;;;;;;;;;;14.80;99.90;;;;;;5073292;28;19936;-87
2022/04/17 08:15:08;;;;;;;;;;;14.90;99.90;;;;;;5055692;28;19905;-87
2022/04/17 08:17:34;;;;;;;;;;;15.00;99.90;;;;;;5054429;28;19916;-88
2022/04/17 08:20:00;;;;;;;;;;;15.10;99.90;;;;;;5055730;28;19912;-87
2022/04/17 08:22:26;;;;;;;;;;;15.20;99.90;;;;;;5051234;28;20024;-88
2022/04/17 08:24:51;;;;;;;;;;;15.20;99.90;;;;;;5052860;28;19909;-88
2022/04/17 08:27:17;;;;;;;;;;;15.30;99.90;;;;;;5053338;28;19912;-87
2022/04/17 08:29:42;;;;;;;;;;;15.30;99.90;;;;;;5052827;28;20349;-88
2022/04/17 08:32:08;;;;;;;;;;;15.50;99.90;;;;;;5052869;28;19962;-88
2022/04/17 08:34:33;;;;;;;;;;;15.70;99.90;;;;;;5051273;28;19963;-88
2022/04/17 08:37:00;;;;;;;;;;;15.80;99.90;;;;;;5052760;28;19916;-88
2022/04/17 08:39:26;;;;;;;;;;;15.90;99.90;;;;;;5053079;28;19909;-88
2022/04/17 08:41:54;;;;;;;;;;;16.00;99.90;;;;;;5052476;28;20333;-88
2022/04/17 08:44:20;;;;;;;;;;;16.00;99.90;;;;;;5051177;28;20293;-84
2022/04/17 08:46:46;;;;;;;;;;;16.00;99.90;;;;;;5052015;28;19916;-85
2022/04/17 08:49:11;;;;;;;;;;;16.10;99.90;;;;;;5052494;28;19912;-85
2022/04/17 08:51:47;;;;;;;;;;;16.30;99.90;;;;;;5052750;28;19913;-84
2022/04/17 08:54:13;;;;;;;;;;;16.40;99.90;;;;;;5052386;28;19916;-85
2022/04/17 08:56:38;;;;;;;;;;;16.60;99.90;;;;;;5051830;28;19909;-84
2022/04/17 08:59:05;;;;;;;;;;;16.70;99.90;;;;;;5052043;28;20004;-85
2022/04/17 09:01:32;;;;;;;;;;;16.70;99.90;;;;;;5045806;28;19999;-84
2022/04/17 09:03:58;;;;;;;;;;;16.70;99.90;;;;;;5049033;28;19908;-84
2022/04/17 09:06:23;;;;;;;;;;;16.70;99.90;;;;;;5052282;28;20012;-85
2022/04/17 09:08:58;;;;;;;;;;;16.90;99.90;;;;;;5052534;28;19919;-84
2022/04/17 09:11:24;;;;;;;;;;;17.00;99.90;;;;;;5052066;28;19912;-85
2022/04/17 09:13:53;;;;;;;;;;;17.10;99.90;;;;;;5043971;28;19962;-85
2022/04/17 09:16:24;;;;;;;;;;;17.20;99.90;;;;;;5051568;28;20003;-85
2022/04/17 09:18:49;;;;;;;;;;;17.30;99.90;;;;;;5051829;28;20035;-85
2022/04/17 09:21:28;;;;;;;;;;;17.40;99.90;;;;;;5061612;28;20392;-85
2022/04/17 09:23:53;;;;;;;;;;;17.50;99.90;;;;;;5066484;28;19932;-84
2022/04/17 09:26:23;;;;;;;;;;;17.70;99.90;;;;;;5055439;28;19916;-89
2022/04/17 09:28:48;;;;;;;;;;;17.60;99.90;;;;;;5072011;28;19916;-89
2022/04/17 09:31:14;;;;;;;;;;;17.70;99.90;;;;;;5056025;28;19913;-89
2022/04/17 09:33:41;;;;;;;;;;;17.80;99.90;;;;;;5072017;28;19913;-89
2022/04/17 09:36:08;;;;;;;;;;;17.90;99.90;;;;;;5053553;28;19912;-89
2022/04/17 09:38:34;;;;;;;;;;;18.00;99.90;;;;;;5053393;28;19915;-88
2022/04/17 09:41:06;;;;;;;;;;;18.00;99.90;;;;;;5056484;28;19904;-88
2022/04/17 09:43:33;;;;;;;;;;;18.10;99.90;;;;;;5048450;28;19915;-89
2022/04/17 09:46:00;;;;;;;;;;;18.30;99.90;;;;;;5055428;28;19913;-88
2022/04/17 09:48:36;;;;;;;;;;;18.40;99.90;;;;;;5054429;28;20025;-88
2022/04/17 09:51:18;;;;;;;;;;;18.60;99.90;;;;;;5054253;28;19917;-89
2022/04/17 09:53:54;;;;;;;;;;;18.70;99.60;;;;;;5055451;28;19991;-89
2022/04/17 09:56:28;;;;;;;;;;;18.80;99.90;;;;;;5053264;28;20287;-89
2022/04/17 09:58:54;;;;;;;;;;;18.90;99.90;;;;;;5072596;28;19951;-88
2022/04/17 10:01:19;;;;;;;;;;;19.00;99.90;;;;;;5070844;28;19947;-87
2022/04/17 10:03:45;;;;;;;;;;;19.10;99.90;;;;;;5054226;28;20404;-87
2022/04/17 10:06:12;;;;;;;;;;;19.20;99.20;;;;;;5054134;28;19909;-87
2022/04/17 10:08:39;;;;;;;;;;;19.20;99.10;;;;;;5054462;28;19962;-87
2022/04/17 10:11:04;;;;;;;;;;;19.30;99.40;;;;;;5070765;28;19916;-88
2022/04/17 10:13:31;;;;;;;;;;;19.30;98.90;;;;;;5054498;28;19931;-87
2022/04/17 10:15:58;;;;;;;;;;;19.30;98.50;;;;;;5056615;28;19911;-87
2022/04/17 10:18:25;;;;;;;;;;;19.20;98.60;;;;;;5071889;28;19908;-86
2022/04/17 10:20:51;;;;;;;;;;;19.20;97.60;;;;;;5052696;28;20001;-87
2022/04/17 10:23:17;;;;;;;;;;;19.20;96.60;;;;;;5053517;28;20331;-87
2022/04/17 10:25:44;;;;;;;;;;;19.30;97.50;;;;;;5053487;28;19912;-87
2022/04/17 10:28:10;;;;;;;;;;;19.30;95.90;;;;;;5053949;28;20377;-87
2022/04/17 10:30:48;;;;;;;;;;;19.40;94.70;;;;;;5053929;28;20346;-87
2022/04/17 10:33:37;;;;;;;;;;;19.40;94.00;;;;;;5071600;28;19912;-88
2022/04/17 10:36:21;;;;;;;;;;;19.50;94.10;;;;;;5006981;28;19908;-87
2022/04/17 10:38:49;;;;;;;;;;;19.60;92.90;;;;;;5052466;28;19918;-87
2022/04/17 10:41:15;;;;;;;;;;;19.70;94.20;;;;;;5052348;28;19909;-86
2022/04/17 10:43:47;;;;;;;;;;;19.80;93.50;;;;;;5054219;28;19909;-85
2022/04/17 10:46:16;;;;;;;;;;;19.90;94.00;;;;;;5071572;28;20001;-86
2022/04/17 10:48:49;;;;;;;;;;;20.10;93.30;;;;;;5053056;28;19909;-87
2022/04/17 10:51:35;;;;;;;;;;;20.10;92.40;;;;;;5070323;28;19923;-86
2022/04/17 10:54:03;;;;;;;;;;;20.20;92.40;;;;;;5070672;28;19915;-86
2022/04/17 10:56:29;;;;;;;;;;;20.10;91.50;;;;;;5053817;28;19997;-87
2022/04/17 10:58:56;;;;;;;;;;;20.20;92.30;;;;;;5071807;28;20332;-87
2022/04/17 11:01:40;;;;;;;;;;;20.20;92.20;;;;;;5051842;28;19950;-87
2022/04/17 11:04:25;;;;;;;;;;;20.20;91.20;;;;;;5051903;28;19961;-87
2022/04/17 11:07:10;;;;;;;;;;;20.30;92.50;;;;;;5052157;28;20398;-87
2022/04/17 11:09:41;;;;;;;;;;;20.30;92.00;;;;;;5069109;28;20389;-87
2022/04/17 11:12:08;;;;;;;;;;;20.10;90.30;;;;;;5055092;28;19959;-87
2022/04/17 11:14:34;;;;;;;;;;;19.90;90.40;;;;;;5054568;28;19912;-87
2022/04/17 11:17:11;;;;;;;;;;;20.00;91.20;;;;;;5054485;28;19915;-88
2022/04/17 11:19:38;;;;;;;;;;;20.00;91.40;;;;;;5055594;28;19912;-87
2022/04/17 11:22:04;;;;;;;;;;;20.10;90.00;;;;;;5056137;28;20296;-87
2022/04/17 11:24:53;;;;;;;;;;;20.30;91.20;;;;;;5056072;28;19969;-86
2022/04/17 11:27:34;;;;;;;;;;;20.40;91.20;;;;;;5060821;28;19999;-86
2022/04/17 11:30:00;;;;;;;;;;;20.60;91.40;;;;;;5056028;28;19983;-88
2022/04/17 11:32:26;;;;;;;;;;;20.70;91.00;;;;;;5056521;28;19936;-87
2022/04/17 11:34:55;;;;;;;;;;;20.60;90.80;;;;;;5073805;28;19995;-86
2022/04/17 11:37:21;;;;;;;;;;;20.60;91.50;;;;;;5073627;28;19944;-87
2022/04/17 11:39:47;;;;;;;;;;;20.70;91.90;;;;;;5060302;28;19911;-87
2022/04/17 11:42:13;;;;;;;;;;;20.90;91.50;;;;;;5061821;28;20288;-87
2022/04/17 11:44:42;;;;;;;;;;;21.20;91.00;;;;;;5057880;28;19967;-87
2022/04/17 11:47:10;;;;;;;;;;;21.30;90.80;;;;;;5074337;28;20335;-87
2022/04/17 11:49:39;;;;;;;;;;;21.40;90.20;;;;;;5055494;28;20011;-86
2022/04/17 11:52:34;;;;;;;;;;;21.50;90.90;;;;;;5055229;28;20321;-86
2022/04/17 11:55:00;;;;;;;;;;;21.60;90.70;;;;;;5051648;28;19908;-87
2022/04/17 11:57:26;;;;;;;;;;;21.70;89.50;;;;;;5055374;28;19909;-86
2022/04/17 11:59:54;;;;;;;;;;;21.60;88.50;;;;;;5055422;28;20376;-86
2022/04/17 12:02:21;;;;;;;;;;;21.70;89.70;;;;;;5056362;28;19904;-86
2022/04/17 12:04:47;;;;;;;;;;;21.60;88.00;;;;;;5055610;28;20392;-86
2022/04/17 12:07:14;;;;;;;;;;;21.80;90.10;;;;;;5055559;28;19908;-87
2022/04/17 12:09:40;;;;;;;;;;;22.00;90.20;;;;;;5055378;28;19912;-88
2022/04/17 12:12:12;;;;;;;;;;;22.20;88.70;;;;;;5056043;28;19909;-87
2022/04/17 12:14:38;;;;;;;;;;;22.20;87.80;;;;;;5056927;28;19993;-87
2022/04/17 12:17:04;;;;;;;;;;;22.20;87.20;;;;;;5054932;28;19938;-87
2022/04/17 12:19:29;;;;;;;;;;;22.30;87.70;;;;;;5055272;28;20258;-86
2022/04/17 12:21:55;;;;;;;;;;;22.30;89.20;;;;;;5073114;28;19982;-87
2022/04/17 12:24:25;;;;;;;;;;;22.40;88.70;;;;;;5059654;28;20124;-88
2022/04/17 12:26:51;;;;;;;;;;;22.40;90.30;;;;;;5056320;28;19915;-87
2022/04/17 12:29:17;;;;;;;;;;;22.40;90.60;;;;;;5073433;28;19917;-87
2022/04/17 12:31:43;;;;;;;;;;;22.50;90.20;;;;;;5055503;28;19909;-88
2022/04/17 12:34:09;;;;;;;;;;;22.70;90.90;;;;;;5058131;28;19940;-87
2022/04/17 12:36:38;;;;;;;;;;;22.70;89.50;;;;;;5057229;28;20124;-86
2022/04/17 12:39:04;;;;;;;;;;;22.30;90.20;;;;;;5072722;28;19916;-86
2022/04/17 12:41:37;;;;;;;;;;;22.30;89.30;;;;;;5054625;28;19969;-86
2022/04/17 12:44:03;;;;;;;;;;;22.00;90.20;;;;;;5059227;28;19920;-86
2022/04/17 12:46:42;;;;;;;;;;;21.90;90.90;;;;;;5054549;28;19931;-91
2022/04/17 12:49:12;;;;;;;;;;;22.20;89.80;;;;;;5056818;28;20078;-91
2022/04/17 12:51:39;;;;;;;;;;;22.30;90.10;;;;;;5055022;28;19951;-92
2022/04/17 12:54:09;;;;;;;;;;;22.50;88.90;;;;;;5056612;28;19909;-93
2022/04/17 12:56:35;;;;;;;;;;;22.40;89.80;;;;;;5056993;28;19916;-95
2022/04/17 12:59:02;;;;;;;;;;;22.50;89.10;;;;;;5056201;28;20400;-92
2022/04/17 13:01:31;;;;;;;;;;;22.40;89.80;;;;;;5085080;28;19909;-91
2022/04/17 13:04:11;;;;;;;;;;;22.40;89.70;;;;;;5061340;28;19916;-92
2022/04/17 13:06:36;;;;;;;;;;;22.60;90.90;;;;;;5072480;28;19908;-92
2022/04/17 13:09:03;;;;;;;;;;;23.00;89.10;;;;;;5072604;28;19915;-90
2022/04/17 13:11:49;;;;;;;;;;;23.30;89.50;;;;;;5054295;28;19913;-91
2022/04/17 13:14:14;;;;;;;;;;;23.60;86.10;;;;;;5054557;28;19914;-92
2022/04/17 13:16:49;;;;;;;;;;;23.60;86.80;;;;;;5054090;28;20007;-90
2022/04/17 13:19:15;;;;;;;;;;;23.70;86.80;;;;;;5072647;28;19995;-90
2022/04/17 13:21:41;;;;;;;;;;;23.70;86.90;;;;;;5054625;28;19952;-90
2022/04/17 13:24:10;;;;;;;;;;;23.70;87.50;;;;;;5054352;28;19974;-91
2022/04/17 13:26:36;;;;;;;;;;;23.60;88.50;;;;;;5054648;28;20182;-90
2022/04/17 13:29:01;;;;;;;;;;;23.40;88.90;;;;;;5073066;28;20132;-92
2022/04/17 13:31:36;;;;;;;;;;;23.60;88.30;;;;;;5060052;28;20037;-93
2022/04/17 13:34:08;;;;;;;;;;;24.00;86.10;;;;;;5082045;28;19916;-92
2022/04/17 13:36:55;;;;;;;;;;;24.20;86.20;;;;;;5059861;28;19931;-95
2022/04/17 13:39:44;;;;;;;;;;;24.40;87.00;;;;;;5071566;28;19913;-92
2022/04/17 13:42:26;;;;;;;;;;;24.30;85.70;;;;;;5057361;28;19912;-92
2022/04/17 13:45:20;;;;;;;;;;;23.80;85.70;;;;;;5056039;28;19975;-93
2022/04/17 13:47:50;;;;;;;;;;;23.60;86.80;;;;;;4959320;28;19910;-93
2022/04/17 13:50:19;;;;;;;;;;;23.60;83.50;;;;;;5054696;28;19916;-92
2022/04/17 13:52:45;;;;;;;;;;;23.40;84.20;;;;;;5060044;28;19909;-95
2022/04/17 13:55:15;;;;;;;;;;;23.50;83.90;;;;;;5059769;28;19915;-91
2022/04/17 13:57:41;;;;;;;;;;;23.40;83.30;;;;;;5037851;28;19913;-91
2022/04/17 14:00:21;;;;;;;;;;;23.10;87.30;;;;;;5079422;28;20345;-96
2022/04/17 14:03:12;;;;;;;;;;;23.30;90.00;;;;;;5058094;28;19920;-92
2022/04/17 14:05:53;;;;;;;;;;;23.20;89.20;;;;;;5061313;28;19935;-92
2022/04/17 14:08:28;;;;;;;;;;;23.30;89.30;;;;;;5060548;28;19971;-93
2022/04/17 14:10:56;;;;;;;;;;;23.70;88.90;;;;;;5057894;28;20076;-93
2022/04/17 14:13:24;;;;;;;;;;;24.10;88.50;;;;;;5057406;28;19904;-93
2022/04/17 14:15:52;;;;;;;;;;;24.20;90.40;;;;;;5079406;28;19956;-93
2022/04/17 14:18:18;;;;;;;;;;;24.60;90.90;;;;;;5056337;28;19913;-91
2022/04/17 14:20:46;;;;;;;;;;;25.60;90.00;;;;;;5066089;28;19916;-92
2022/04/17 14:23:15;;;;;;;;;;;26.40;88.00;;;;;;5054922;28;19913;-94
2022/04/17 14:26:03;;;;;;;;;;;;;;;;;;;;;
2022/04/17 14:28:29;;;;;;;;;;;26.30;85.90;;;;;;5051414;28;20048;-92
2022/04/17 14:30:58;;;;;;;;;;;26.00;86.10;;;;;;5049994;28;20008;-94
2022/04/17 14:33:23;;;;;;;;;;;26.00;86.60;;;;;;5050664;28;19923;-93
2022/04/17 14:35:57;;;;;;;;;;;26.20;87.20;;;;;;5049667;28;19913;-91
2022/04/17 14:38:38;;;;;;;;;;;26.90;85.80;;;;;;5049985;28;19924;-94